createdAt,value
2019-02-14T00:03:44.019Z,45.00
2019-02-14T00:08:50.076Z,45.00
2019-02-14T00:14:01.288Z,45.10
2019-02-14T00:19:06.048Z,45.10
2019-02-14T00:24:10.499Z,45.10
2019-02-14T00:29:16.323Z,45.10
2019-02-14T00:34:20.706Z,45.10
2019-02-14T00:39:25.470Z,45.10
2019-02-14T00:44:29.767Z,45.10
2019-02-14T00:49:34.517Z,45.10
2019-02-14T00:54:38.854Z,45.20
2019-02-14T00:59:43.254Z,45.20
2019-02-14T01:04:47.547Z,45.20
2019-02-14T01:09:51.981Z,45.20
2019-02-14T01:14:56.290Z,45.20
2019-02-14T01:20:00.624Z,45.20
2019-02-14T01:25:05.219Z,45.20
2019-02-14T01:30:09.746Z,45.20
2019-02-14T01:35:15.643Z,45.20
2019-02-14T01:40:20.028Z,45.20
2019-02-14T01:45:24.962Z,45.20
2019-02-14T01:50:29.290Z,45.20
2019-02-14T01:55:34.080Z,45.20
2019-02-14T02:00:38.466Z,45.70
2019-02-14T02:05:50.669Z,45.10
2019-02-14T02:10:48.947Z,45.10
2019-02-14T02:15:53.260Z,45.10
2019-02-14T02:20:57.703Z,45.10
2019-02-14T02:26:02.052Z,45.10
2019-02-14T02:31:06.476Z,45.20
2019-02-14T02:36:11.243Z,45.10
2019-02-14T02:41:17.068Z,45.20
2019-02-14T02:46:21.430Z,45.10
2019-02-14T02:51:25.751Z,45.20
2019-02-14T02:56:30.073Z,45.90
2019-02-14T03:01:34.881Z,45.20
2019-02-14T03:06:39.426Z,45.20
2019-02-14T03:11:43.729Z,45.30
2019-02-14T03:16:48.050Z,45.20
2019-02-14T03:21:52.410Z,45.30
2019-02-14T03:26:56.643Z,45.30
2019-02-14T03:32:00.946Z,45.20
2019-02-14T03:37:05.710Z,45.20
2019-02-14T03:42:11.119Z,45.30
2019-02-14T03:47:15.467Z,45.20
2019-02-14T03:52:19.727Z,45.20
2019-02-14T03:57:24.027Z,45.20
2019-02-14T04:02:28.427Z,45.20
2019-02-14T04:07:33.005Z,45.20
2019-02-14T04:12:37.580Z,45.20
2019-02-14T04:17:42.001Z,45.20
2019-02-14T04:22:46.379Z,45.20
2019-02-14T04:27:50.544Z,45.20
2019-02-14T04:32:54.883Z,45.20
2019-02-14T04:37:59.358Z,45.30
2019-02-14T04:43:04.524Z,45.20
2019-02-14T04:48:08.983Z,45.20
2019-02-14T04:53:14.412Z,45.20
2019-02-14T04:58:18.692Z,45.30
2019-02-14T05:03:23.002Z,45.20
2019-02-14T05:08:27.331Z,45.30
2019-02-14T05:13:32.056Z,45.30
2019-02-14T05:18:36.364Z,45.30
2019-02-14T05:23:40.890Z,45.30
2019-02-14T05:28:45.276Z,45.30
2019-02-14T05:33:49.734Z,45.30
2019-02-14T05:38:54.288Z,45.30
2019-02-14T05:43:58.562Z,45.30
2019-02-14T05:49:02.898Z,45.30
2019-02-14T05:54:07.336Z,45.30
2019-02-14T05:59:11.543Z,45.30
2019-02-14T06:04:16.672Z,45.30
2019-02-14T06:09:21.499Z,45.20
2019-02-14T06:14:25.858Z,45.20
2019-02-14T06:19:30.208Z,45.20
2019-02-14T06:24:34.992Z,45.20
2019-02-14T06:29:39.571Z,45.20
2019-02-14T06:34:43.947Z,45.20
2019-02-14T06:39:48.582Z,45.20
2019-02-14T06:44:54.108Z,45.20
2019-02-14T06:50:01.126Z,45.20
2019-02-14T06:55:06.992Z,44.80
2019-02-14T07:00:14.289Z,45.10
2019-02-14T07:05:20.087Z,45.10
2019-02-14T07:10:25.625Z,45.10
2019-02-14T07:15:30.168Z,45.10
2019-02-14T07:20:34.911Z,45.10
2019-02-14T07:25:39.366Z,45.00
2019-02-14T07:30:43.798Z,45.00
2019-02-14T07:35:48.334Z,45.00
2019-02-14T07:40:52.770Z,45.00
2019-02-14T07:45:57.970Z,45.00
2019-02-14T07:51:02.500Z,45.00
2019-02-14T07:56:06.903Z,45.70
2019-02-14T08:01:11.714Z,45.00
2019-02-14T08:06:17.604Z,45.00
2019-02-14T08:11:22.041Z,45.00
2019-02-14T08:16:26.993Z,45.00
2019-02-14T08:21:31.667Z,45.00
2019-02-14T08:26:36.204Z,45.10
2019-02-14T08:31:40.775Z,45.20
2019-02-14T08:36:45.431Z,45.30
2019-02-14T08:41:50.591Z,45.30
2019-02-14T08:47:07.640Z,45.30
2019-02-14T08:52:14.037Z,45.30
2019-02-14T08:57:20.047Z,45.30
2019-02-14T09:02:25.258Z,45.40
2019-02-14T09:07:30.952Z,45.30
2019-02-14T09:12:36.521Z,45.30
2019-02-14T09:17:40.805Z,45.20
2019-02-14T09:22:45.709Z,45.20
2019-02-14T09:27:49.916Z,45.10
2019-02-14T09:32:54.157Z,45.10
2019-02-14T09:38:03.336Z,45.00
2019-02-14T09:43:08.279Z,45.00
2019-02-14T09:48:13.144Z,44.90
2019-02-14T09:53:18.515Z,44.90
2019-02-14T09:58:23.184Z,44.80
2019-02-14T10:03:27.579Z,44.70
2019-02-14T10:08:31.795Z,44.80
2019-02-14T10:13:36.337Z,45.20
2019-02-14T10:18:40.646Z,44.70
2019-02-14T10:23:45.023Z,44.70
2019-02-14T10:28:49.389Z,44.60
2019-02-14T10:33:54.063Z,44.60
2019-02-14T10:38:58.224Z,44.50
2019-02-14T10:44:02.506Z,44.50
2019-02-14T10:49:07.865Z,44.40
2019-02-14T10:54:12.357Z,44.40
2019-02-14T10:59:16.816Z,44.30
2019-02-14T11:04:21.143Z,44.30
2019-02-14T11:09:26.033Z,44.20
2019-02-14T11:14:30.404Z,44.20
2019-02-14T11:19:34.812Z,44.20
2019-02-14T11:24:39.410Z,44.10
2019-02-14T11:29:43.764Z,44.10
2019-02-14T11:34:47.965Z,44.00
2019-02-14T11:39:52.770Z,44.00
2019-02-14T11:44:57.025Z,43.90
2019-02-14T11:50:01.276Z,43.80
2019-02-14T11:55:06.552Z,43.80
2019-02-14T12:00:12.875Z,43.70
2019-02-14T12:05:18.649Z,43.70
2019-02-14T12:10:22.861Z,43.70
2019-02-14T12:15:27.207Z,43.70
2019-02-14T12:20:31.633Z,43.60
2019-02-14T12:25:35.873Z,43.60
2019-02-14T12:30:40.149Z,43.60
2019-02-14T12:35:44.783Z,43.50
2019-02-14T12:40:49.242Z,43.50
2019-02-14T12:45:53.586Z,43.50
2019-02-14T12:50:57.868Z,43.50
2019-02-14T12:56:02.131Z,43.50
2019-02-14T13:01:07.450Z,43.60
2019-02-14T13:06:12.516Z,43.50
2019-02-14T13:11:17.017Z,43.50
2019-02-14T13:16:21.676Z,43.50
2019-02-14T13:21:25.966Z,43.50
2019-02-14T13:26:30.307Z,43.50
2019-02-14T13:31:35.560Z,43.40
2019-02-14T13:36:39.869Z,43.40
2019-02-14T13:41:44.299Z,43.40
2019-02-14T13:46:48.774Z,43.40
2019-02-14T13:51:53.070Z,43.30
2019-02-14T13:56:57.398Z,43.20
2019-02-14T14:02:01.631Z,43.20
2019-02-14T14:07:06.897Z,43.30
2019-02-14T14:12:11.273Z,43.20
2019-02-14T14:17:15.665Z,43.10
2019-02-14T14:22:20.280Z,43.20
2019-02-14T14:27:24.653Z,43.10
2019-02-14T14:32:28.877Z,43.10
2019-02-14T14:37:33.156Z,43.10
2019-02-14T14:42:37.558Z,43.10
2019-02-14T14:47:41.758Z,43.50
2019-02-14T14:52:45.914Z,43.00
2019-02-14T14:57:50.251Z,42.90
2019-02-14T15:02:54.550Z,43.00
2019-02-14T15:07:58.812Z,43.00
2019-02-14T15:13:02.967Z,42.90
2019-02-14T15:18:08.483Z,42.90
2019-02-14T15:23:13.296Z,43.00
2019-02-14T15:28:17.547Z,43.00
2019-02-14T15:33:21.827Z,43.00
2019-02-14T15:38:26.365Z,43.00
2019-02-14T15:43:31.909Z,43.00
2019-02-14T15:48:36.357Z,43.00
2019-02-14T15:53:41.383Z,43.10
2019-02-14T15:58:46.622Z,43.00
2019-02-14T16:03:50.938Z,43.00
2019-02-14T16:08:55.230Z,43.10
2019-02-14T16:13:59.539Z,43.10
2019-02-14T16:19:03.832Z,43.10
2019-02-14T16:24:08.263Z,43.20
2019-02-14T16:29:14.028Z,43.10
2019-02-14T16:34:18.828Z,43.20
2019-02-14T16:39:25.767Z,43.20
2019-02-14T16:44:29.660Z,43.20
2019-02-14T16:49:34.255Z,43.20
2019-02-14T16:54:38.454Z,43.30
2019-02-14T16:59:42.745Z,43.30
2019-02-14T17:04:47.100Z,43.30
2019-02-14T17:09:51.419Z,43.40
2019-02-14T17:14:55.943Z,43.40
2019-02-14T17:20:00.493Z,43.50
2019-02-14T17:25:06.606Z,43.40
2019-02-14T17:30:11.801Z,43.40
2019-02-14T17:35:16.976Z,43.50
2019-02-14T17:40:21.892Z,43.50
2019-02-14T17:45:27.333Z,43.50
2019-02-14T17:50:32.114Z,43.60
2019-02-14T17:55:36.697Z,43.60
2019-02-14T18:00:41.222Z,43.70
2019-02-14T18:05:46.106Z,43.70
2019-02-14T18:10:55.025Z,43.70
2019-02-14T18:15:56.354Z,43.70
2019-02-14T18:21:01.154Z,43.80
2019-02-14T18:26:06.053Z,43.80
2019-02-14T18:31:11.394Z,44.00
2019-02-14T18:36:15.817Z,44.00
2019-02-14T18:41:21.564Z,44.10
2019-02-14T18:46:26.534Z,44.10
2019-02-14T18:51:30.770Z,44.20
2019-02-14T18:56:35.176Z,44.20
2019-02-14T19:01:39.485Z,44.30
2019-02-14T19:06:43.786Z,44.20
2019-02-14T19:11:49.552Z,44.30
2019-02-14T19:16:53.828Z,44.30
2019-02-14T19:21:58.131Z,44.40
2019-02-14T19:27:02.293Z,44.30
2019-02-14T19:32:07.466Z,44.40
2019-02-14T19:37:11.739Z,44.40
2019-02-14T19:42:16.820Z,44.40
2019-02-14T19:47:21.646Z,44.40
2019-02-14T19:52:25.814Z,44.50
2019-02-14T19:57:30.312Z,44.50
2019-02-14T20:02:35.020Z,44.50
2019-02-14T20:07:39.741Z,44.60
2019-02-14T20:12:44.335Z,44.50
2019-02-14T20:17:48.570Z,44.50
2019-02-14T20:22:52.695Z,44.60
2019-02-14T20:27:56.865Z,44.60
2019-02-14T20:33:04.760Z,44.60
2019-02-14T20:38:07.825Z,44.60
2019-02-14T20:43:13.587Z,44.60
2019-02-14T20:48:18.077Z,44.80
2019-02-14T20:53:22.501Z,44.70
2019-02-14T20:58:26.742Z,44.70
2019-02-14T21:03:31.254Z,44.70
2019-02-14T21:08:36.626Z,44.80
2019-02-14T21:13:41.226Z,44.70
2019-02-14T21:18:45.488Z,44.80
2019-02-14T21:23:49.819Z,44.80
2019-02-14T21:28:54.227Z,45.40
2019-02-14T21:33:58.403Z,44.80
2019-02-14T21:39:02.753Z,44.80
2019-02-14T21:44:06.977Z,44.90
2019-02-14T21:49:11.632Z,44.80
2019-02-14T21:54:17.850Z,44.80
2019-02-14T21:59:21.920Z,44.80
2019-02-14T22:04:26.278Z,44.80
2019-02-14T22:09:30.637Z,44.80
2019-02-14T22:14:34.994Z,44.80
2019-02-14T22:19:39.269Z,44.80
2019-02-14T22:24:43.476Z,45.30
2019-02-14T22:29:47.682Z,44.90
2019-02-14T22:34:52.093Z,44.90
2019-02-14T22:39:56.646Z,44.90
2019-02-14T22:45:00.860Z,44.90
2019-02-14T22:50:05.567Z,44.90
2019-02-14T22:55:11.367Z,44.90
2019-02-14T23:00:42.441Z,45.00
2019-02-14T23:05:46.790Z,45.00
2019-02-14T23:10:52.007Z,44.90
2019-02-14T23:15:56.270Z,44.90
2019-02-14T23:21:00.433Z,45.00
2019-02-14T23:26:04.917Z,45.00
2019-02-14T23:31:09.411Z,45.00
2019-02-14T23:36:14.955Z,45.00
2019-02-14T23:41:20.623Z,45.00
2019-02-14T23:46:24.844Z,45.20
2019-02-14T23:51:40.098Z,45.00
2019-02-14T23:56:44.470Z,45.00
